Data for 02/12/2016

Time Sea-Level Adjusted Pressure Absolute Pressure Temperature Relative Humidity Dew Point   
(mb) (inHg) (mb) (inHg) (C) (F) (%) (C) (F)
00:05 1025 30.27 854 25.22 5.7 42.2 50 -4 24.7
00:10 1025 30.27 854 25.22 5.7 42.2 51 -3.7 25.4
00:15 1025 30.27 854 25.22 5.6 42 52 -3.4 25.8
00:20 1025 30.27 854 25.22 5.4 41.7 54 -3.1 26.4
00:25 1025 30.27 854 25.22 5.4 41.6 55 -3 26.7
00:30 1025 30.27 854 25.22 5.4 41.7 55 -2.8 26.9
00:35 1025 30.27 854 25.22 5.4 41.7 56 -2.7 27.1
00:40 1025 30.27 854 25.22 5.3 41.5 56 -2.7 27.1
00:45 1025 30.27 854 25.22 5 41.1 57 -2.7 27.2
00:50 1025 30.27 854 25.22 5 41 57 -2.8 27
00:55 1025 30.27 854 25.22 5.3 41.5 54 -3.2 26.3
01:00 1025 30.27 854 25.22 5.8 42.5 54 -2.7 27.1
01:05 1025 30.27 854 25.22 6 42.8 54 -2.6 27.3
01:10 1024 30.24 854 25.22 5.7 42.2 56 -2.3 27.8
01:15 1024 30.24 854 25.22 5.6 42.1 56 -2.4 27.6
01:20 1024 30.24 854 25.22 5 41 58 -2.6 27.3
01:25 1024 30.24 854 25.22 4.9 40.9 56 -3.1 26.3
01:30 1024 30.24 854 25.22 5.2 41.3 56 -3 26.6
01:35 1024 30.24 854 25.22 5.2 41.3 56 -3 26.7
01:40 1024 30.24 854 25.22 5.2 41.4 55 -3.1 26.5
01:45 1024 30.24 854 25.22 5.4 41.6 54 -3.2 26.3
01:50 1024 30.24 854 25.22 5.4 41.8 54 -3.1 26.4
01:55 1024 30.24 853 25.19 5.4 41.6 55 -2.9 26.7
02:00 1024 30.24 854 25.22 5.2 41.4 55 -3.1 26.4
02:05 1024 30.24 854 25.22 5.2 41.4 55 -3.2 26.3
02:10 1024 30.24 854 25.22 5.3 41.6 54 -3.3 26.1
02:15 1024 30.24 854 25.22 5.4 41.7 55 -3 26.6
02:20 1024 30.24 854 25.22 5.5 41.8 56 -2.7 27.1
02:25 1024 30.24 854 25.22 5.5 41.9 56 -2.7 27.2
02:30 1024 30.24 854 25.22 5.5 42 55 -2.7 27.2
02:35 1024 30.24 854 25.22 5.5 41.8 58 -2.2 28
02:40 1025 30.27 854 25.22 5.4 41.8 59 -2 28.4
02:45 1025 30.27 854 25.22 5.4 41.8 59 -1.9 28.6
02:50 1025 30.27 854 25.22 5.2 41.3 61 -1.8 28.8
02:55 1025 30.27 854 25.22 5.7 42.2 60 -1.4 29.4
03:00 1025 30.27 854 25.22 5.5 42 63 -1 30.2
03:05 1025 30.27 854 25.22 5.3 41.5 64 -0.9 30.3
03:10 1025 30.27 854 25.22 5.1 41.1 65 -0.9 30.4
03:15 1025 30.27 854 25.22 4.9 40.7 66 -1 30.2
03:20 1025 30.27 854 25.22 4.6 40.3 66 -1.1 29.9
03:25 1025 30.27 854 25.22 4.5 40.1 66 -1.2 29.8
03:30 1025 30.27 854 25.22 4.2 39.5 67 -1.3 29.6
03:35 1025 30.27 854 25.22 3.9 39.1 68 -1.5 29.3
03:40 1025 30.27 854 25.22 3.6 38.5 70 -1.4 29.5
03:45 1025 30.27 854 25.22 3.5 38.2 70 -1.5 29.3
03:50 1025 30.27 854 25.22 3.3 37.9 70 -1.7 29
03:55 1025 30.27 854 25.22 3.2 37.8 69 -1.8 28.7
04:00 1025 30.27 854 25.22 3.3 38 69 -1.8 28.7
04:05 1025 30.27 854 25.22 3.4 38.1 69 -1.7 28.9
04:10 1025 30.27 854 25.22 3.6 38.5 70 -1.4 29.5
04:15 1025 30.27 854 25.22 3.8 38.9 69 -1.4 29.5
04:20 1025 30.27 854 25.22 4 39.2 68 -1.3 29.6
04:25 1025 30.27 854 25.22 4.1 39.4 69 -1 30.1
04:30 1025 30.27 854 25.22 4.2 39.5 70 -0.8 30.5
04:35 1024 30.24 854 25.22 4.1 39.5 70 -0.9 30.4
04:40 1024 30.24 854 25.22 4.2 39.5 70 -0.7 30.7
04:45 1024 30.24 853 25.19 4.1 39.5 69 -1 30.2
04:50 1024 30.24 853 25.19 4.4 39.8 68 -0.9 30.3
04:55 1024 30.24 853 25.19 4.3 39.8 69 -0.9 30.4
05:00 1024 30.24 853 25.19 4.3 39.7 70 -0.7 30.7
05:05 1024 30.24 853 25.19 4.4 39.9 70 -0.7 30.8
05:10 1024 30.24 854 25.22 4.4 39.8 72 -0.3 31.4
05:15 1024 30.24 854 25.22 4.2 39.5 73 -0.2 31.7
05:20 1024 30.24 854 25.22 4 39.1 74 -0.2 31.6
05:25 1024 30.24 854 25.22 4.1 39.3 73 -0.3 31.4
05:30 1024 30.24 854 25.22 4.1 39.4 72 -0.4 31.2
05:35 1024 30.24 854 25.22 4 39.2 72 -0.7 30.8
05:40 1025 30.27 854 25.22 3.9 39 72 -0.7 30.7
05:45 1024 30.24 854 25.22 3.8 38.8 72 -0.8 30.6
05:50 1024 30.24 854 25.22 3.7 38.7 72 -0.8 30.5
05:55 1025 30.27 854 25.22 3.7 38.7 72 -0.8 30.6
06:00 1025 30.27 854 25.22 3.8 38.8 72 -0.8 30.6
06:05 1025 30.27 854 25.22 3.8 38.8 73 -0.6 30.8
06:10 1025 30.27 854 25.22 3.8 38.8 73 -0.6 30.9
06:15 1025 30.27 854 25.22 3.7 38.6 73 -0.8 30.6
06:20 1025 30.27 854 25.22 3.7 38.6 75 -0.4 31.4
06:25 1025 30.27 854 25.22 3.4 38.2 75 -0.6 30.8
06:30 1025 30.27 854 25.22 3.5 38.3 74 -0.6 30.9
06:35 1025 30.27 854 25.22 3.4 38.2 75 -0.6 30.9
06:40 1025 30.27 854 25.22 3.4 38.2 76 -0.5 31.2
06:45 1025 30.27 854 25.22 3.2 37.8 77 -0.5 31.1
06:50 1025 30.27 854 25.22 3.4 38 76 -0.5 31.1
06:55 1025 30.27 854 25.22 3.5 38.4 71 -1.1 30
07:00 1025 30.27 854 25.22 3.9 39 70 -1 30.2
07:05 1025 30.27 854 25.22 4 39.2 70 -0.9 30.4
07:10 1025 30.27 854 25.22 4 39.2 70 -1.1 30.1
07:15 1025 30.27 854 25.22 4 39.2 70 -1 30.3
07:20 1025 30.27 854 25.22 4.1 39.3 69 -1.1 30
07:25 1024 30.24 854 25.22 4.1 39.4 72 -0.6 31
07:30 1025 30.27 854 25.22 4.1 39.4 71 -0.6 30.9
07:35 1025 30.27 854 25.22 3.9 39 76 0 32.1
07:40 1025 30.27 854 25.22 3.4 38.1 77 -0.2 31.6
07:45 1025 30.27 854 25.22 3.2 37.8 78 -0.2 31.6
07:50 1025 30.27 854 25.22 3.2 37.8 79 -0 31.9
07:55 1025 30.27 854 25.22 3.1 37.5 79 -0.2 31.7
08:00 1025 30.27 854 25.22 2.9 37.2 81 -0.1 31.9
08:05 1025 30.27 854 25.22 2.8 37.1 79 -0.4 31.3
08:10 1025 30.27 854 25.22 2.9 37.3 79 -0.3 31.4
08:15 1024 30.24 854 25.22 2.8 37 79 -0.4 31.2
08:20 1024 30.24 854 25.22 2.7 36.8 79 -0.7 30.8
08:25 1024 30.24 854 25.22 2.7 36.9 78 -0.7 30.7
08:30 1024 30.24 854 25.22 2.8 37 76 -1 30.1
08:35 1024 30.24 854 25.22 3 37.4 76 -0.8 30.6
08:40 1024 30.24 854 25.22 2.9 37.3 76 -0.9 30.3
08:45 1024 30.24 854 25.22 3 37.5 75 -0.9 30.3
08:50 1024 30.24 854 25.22 3 37.4 76 -0.8 30.6
08:55 1024 30.24 854 25.22 2.8 37 78 -0.7 30.7
09:00 1024 30.24 854 25.22 2.7 36.9 76 -1.1 30.1
09:05 1024 30.24 854 25.22 2.9 37.3 78 -0.6 30.9
09:10 1024 30.24 854 25.22 3.1 37.5 77 -0.5 31.1
09:15 1025 30.27 854 25.22 3.2 37.7 77 -0.4 31.3
09:20 1024 30.24 854 25.22 3.2 37.8 78 -0.3 31.5
09:25 1024 30.24 853 25.19 3.2 37.8 78 -0.2 31.6
09:30 1024 30.24 854 25.22 3.2 37.8 78 -0.2 31.6
09:35 1024 30.24 854 25.22 3.4 38.1 77 -0.2 31.7
09:40 1024 30.24 854 25.22 3.5 38.3 77 -0.1 31.8
09:45 1024 30.24 854 25.22 3.6 38.5 77 -0.1 31.9
09:50 1024 30.24 854 25.22 3.7 38.6 77 0 32
09:55 1024 30.24 854 25.22 3.6 38.6 77 0 32.1
10:00 1024 30.24 854 25.22 3.7 38.7 77 -0 32
10:05 1024 30.24 853 25.19 3.9 39 76 0.1 32.1
10:10 1024 30.24 853 25.19 4 39.2 75 0.1 32.1
10:15 1024 30.24 853 25.19 4.1 39.4 75 0.1 32.2
10:20 1024 30.24 853 25.19 4.5 40.2 73 0.1 32.2
10:25 1024 30.24 853 25.19 5.1 41.3 70 0.2 32.3
10:30 1024 30.24 853 25.19 5.8 42.4 67 0.2 32.4
10:35 1024 30.24 853 25.19 6.2 43.2 67 0.5 32.8
10:40 1024 30.24 853 25.19 6.8 44.2 64 0.5 32.8
10:45 1024 30.24 853 25.19 7.6 45.6 62 0.8 33.4
10:50 1024 30.24 853 25.19 6.8 44.2 65 0.7 33.3
10:55 1024 30.24 853 25.19 6.9 44.3 62 0.2 32.3
11:00 1024 30.24 853 25.19 7.1 44.8 62 0.4 32.8
11:05 1024 30.24 853 25.19 6.9 44.4 65 0.8 33.5
11:10 1024 30.24 853 25.19 7 44.7 62 0.3 32.6
11:15 1024 30.24 853 25.19 7.5 45.4 62 0.7 33.2
11:20 1024 30.24 853 25.19 7.1 44.8 62 0.4 32.7
11:25 1024 30.24 853 25.19 7.6 45.8 60 0.4 32.7
11:30 1024 30.24 853 25.19 7.9 46.2 59 0.3 32.5
11:35 1024 30.24 853 25.19 8.5 47.2 57 0.6 33
11:40 1024 30.24 853 25.19 8.9 47.9 56 0.6 33
11:45 1024 30.24 853 25.19 9.5 49 54 0.8 33.4
11:50 1024 30.24 853 25.19 9.2 48.6 57 1.2 34.1
11:55 1024 30.24 853 25.19 8.3 46.9 61 1.1 34
12:00 1024 30.24 853 25.19 7.4 45.4 62 0.8 33.4
12:05 1024 30.24 853 25.19 7.1 44.8 63 0.6 33.1
12:10 1024 30.24 853 25.19 7.3 45.2 62 0.5 32.9
12:15 1024 30.24 853 25.19 7.2 44.9 63 0.6 33.1
12:20 1024 30.24 853 25.19 7.5 45.5 62 0.7 33.3
12:25 1024 30.24 853 25.19 7.9 46.2 60 0.7 33.2
12:30 1024 30.24 853 25.19 8.5 47.3 58 0.9 33.5
12:35 1024 30.24 853 25.19 8.5 47.3 62 1.5 34.8
12:40 1024 30.24 853 25.19 8.4 47.1 59 0.9 33.7
12:45 1024 30.24 853 25.19 8 46.4 62 1.2 34.2
12:50 1024 30.24 853 25.19 7.4 45.3 62 0.7 33.3
12:55 1023 30.21 853 25.19 7.4 45.3 62 0.5 33
13:00 1023 30.21 853 25.19 7.9 46.2 60 0.6 33.1
13:05 1023 30.21 853 25.19 8.2 46.7 58 0.5 32.9
13:10 1023 30.21 853 25.19 8.6 47.5 58 0.7 33.3
13:15 1023 30.21 852 25.16 8.4 47.1 60 1 33.8
13:20 1023 30.21 852 25.16 8.6 47.4 59 1 33.8
13:25 1023 30.21 852 25.16 8.2 46.8 61 1.1 33.9
13:30 1023 30.21 852 25.16 8.2 46.7 60 0.8 33.5
13:35 1023 30.21 852 25.16 8.1 46.6 59 0.5 32.9
13:40 1023 30.21 852 25.16 8.2 46.7 58 0.4 32.7
13:45 1023 30.21 852 25.16 8.8 47.8 56 0.6 33.1
13:50 1023 30.21 852 25.16 8.8 47.8 56 0.6 33.1
13:55 1023 30.21 852 25.16 8.9 48.1 55 0.5 33
14:00 1023 30.21 852 25.16 8.4 47.1 58 0.7 33.3
14:05 1023 30.21 852 25.16 8.4 47.1 57 0.3 32.6
14:10 1023 30.21 852 25.16 8.5 47.3 57 0.4 32.8
14:15 1022 30.18 852 25.16 9 48.2 55 0.4 32.6
14:20 1022 30.18 852 25.16 9.5 49 52 0.3 32.5
14:25 1022 30.18 852 25.16 9.7 49.5 53 0.7 33.2
14:30 1022 30.18 851 25.13 9.8 49.6 54 1.1 33.9
14:35 1022 30.18 851 25.13 9.1 48.4 57 1 33.8
14:40 1022 30.18 851 25.13 8.8 47.8 58 1 33.7
14:45 1022 30.18 851 25.13 8.4 47.2 60 1 33.9
14:50 1022 30.18 851 25.13 8.8 47.8 57 0.7 33.2
14:55 1022 30.18 851 25.13 9.1 48.3 55 0.6 33.2
15:00 1022 30.18 851 25.13 9.2 48.6 54 0.5 32.9
15:05 1022 30.18 851 25.13 9.6 49.2 53 0.4 32.8
15:10 1022 30.18 851 25.13 9.9 49.9 52 0.6 33.1
15:15 1022 30.18 851 25.13 10 49.9 52 0.6 33.1
15:20 1021 30.15 851 25.13 9.8 49.7 53 0.7 33.3
15:25 1021 30.15 851 25.13 9.6 49.3 53 0.6 33
15:30 1021 30.15 851 25.13 9.3 48.7 54 0.5 32.9
15:35 1021 30.15 851 25.13 10.2 50.3 49 0 32.1
15:40 1021 30.15 851 25.13 10.9 51.6 47 0.1 32.2
15:45 1022 30.18 851 25.13 10.7 51.3 52 1.2 34.1
15:50 1022 30.18 851 25.13 10.3 50.6 50 0.3 32.5
15:55 1021 30.15 851 25.13 10.5 50.8 50 0.6 33.1
16:00 1022 30.18 851 25.13 10.5 51 51 1 33.8
16:05 1022 30.18 851 25.13 10 50 52 0.6 33.1
16:10 1022 30.18 851 25.13 9.9 49.8 52 0.7 33.2
16:15 1022 30.18 851 25.13 9.8 49.7 53 0.6 33.2
16:20 1022 30.18 851 25.13 9.5 49.2 53 0.6 33
16:25 1022 30.18 851 25.13 9.5 49.1 54 0.8 33.5
16:30 1021 30.15 851 25.13 9.5 49.1 55 1 33.8
16:35 1022 30.18 851 25.13 8.8 47.8 58 1.1 33.9
16:40 1022 30.18 851 25.13 8.4 47.1 59 0.9 33.6
16:45 1022 30.18 851 25.13 8.6 47.5 58 0.7 33.3
16:50 1022 30.18 851 25.13 8.1 46.6 59 0.6 33.2
16:55 1021 30.15 851 25.13 7.9 46.2 60 0.7 33.2
17:00 1021 30.15 851 25.13 7.8 46.1 60 0.6 33
17:05 1021 30.15 851 25.13 8 46.3 60 0.6 33.1
17:10 1021 30.15 850 25.1 7.6 45.7 60 0.5 32.9
17:15 1021 30.15 850 25.1 7.5 45.4 61 0.4 32.8
17:20 1021 30.15 850 25.1 7.6 45.6 60 0.4 32.8
17:25 1021 30.15 850 25.1 7.5 45.5 61 0.4 32.8
17:30 1021 30.15 850 25.1 7.3 45.1 62 0.5 33
17:35 1021 30.15 850 25.1 7.2 44.9 62 0.4 32.7
17:40 1021 30.15 850 25.1 7.3 45.1 62 0.4 32.8
17:45 1021 30.15 850 25.1 7.3 45.2 61 0.3 32.5
17:50 1021 30.15 850 25.1 7.4 45.4 60 0.3 32.5
17:55 1021 30.15 850 25.1 7.5 45.5 60 0.3 32.6
18:00 1021 30.15 850 25.1 7.5 45.5 60 0.2 32.4
18:05 1021 30.15 850 25.1 7.5 45.6 60 0.2 32.4
18:10 1021 30.15 850 25.1 7.5 45.6 60 0.3 32.5
18:15 1021 30.15 850 25.1 7.4 45.4 60 0.2 32.4
18:20 1021 30.15 850 25.1 7.4 45.3 61 0.3 32.5
18:25 1021 30.15 850 25.1 7.4 45.3 60 0.3 32.5
18:30 1021 30.15 850 25.1 7.4 45.2 61 0.2 32.4
18:35 1021 30.15 850 25.1 7.5 45.4 60 0.3 32.5
18:40 1021 30.15 850 25.1 7.3 45.2 61 0.2 32.4
18:45 1021 30.15 850 25.1 7.3 45.1 61 0.3 32.5
18:50 1021 30.15 850 25.1 7.2 45 60 0.1 32.2
18:55 1021 30.15 850 25.1 7.3 45.1 59 -0.1 31.8
19:00 1021 30.15 850 25.1 7.2 45 59 -0.2 31.7
19:05 1021 30.15 850 25.1 7.3 45.1 58 -0.5 31.2
19:10 1021 30.15 850 25.1 7.2 44.9 60 0 32
19:15 1021 30.15 850 25.1 7.1 44.8 61 0.1 32.3
19:20 1021 30.15 850 25.1 7.1 44.8 62 0.5 32.8
19:25 1021 30.15 850 25.1 7.1 44.8 63 0.6 33
19:30 1021 30.15 850 25.1 6.9 44.4 64 0.6 33.1
19:35 1021 30.15 850 25.1 6.7 44.1 64 0.5 32.9
19:40 1021 30.15 850 25.1 6.4 43.5 66 0.5 32.9
19:45 1021 30.15 850 25.1 6.1 42.9 67 0.5 32.8
19:50 1021 30.15 850 25.1 5.9 42.7 68 0.5 32.8
19:55 1021 30.15 850 25.1 5.7 42.3 69 0.5 32.8
20:00 1021 30.15 850 25.1 5.5 41.9 71 0.6 33.1
20:05 1021 30.15 850 25.1 5.3 41.6 70 0.3 32.5
20:10 1021 30.15 850 25.1 5.2 41.4 71 0.4 32.6
20:15 1021 30.15 850 25.1 5.1 41.1 72 0.4 32.6
20:20 1021 30.15 850 25.1 5 41 72 0.3 32.6
20:25 1021 30.15 850 25.1 4.9 40.8 72 0.3 32.5
20:30 1021 30.15 850 25.1 4.8 40.6 72 0.1 32.2
20:35 1021 30.15 850 25.1 4.8 40.7 71 0.1 32.2
20:40 1021 30.15 850 25.1 5 41.1 71 0.1 32.3
20:45 1021 30.15 850 25.1 5.1 41.2 71 0.2 32.4
20:50 1021 30.15 850 25.1 5.1 41.3 71 0.3 32.5
20:55 1021 30.15 850 25.1 5.3 41.5 70 0.2 32.4
21:00 1021 30.15 850 25.1 5.1 41.3 70 0.1 32.2
21:05 1021 30.15 850 25.1 4.7 40.5 72 0.1 32.1
21:10 1021 30.15 850 25.1 4.7 40.4 71 -0.1 31.8
21:15 1021 30.15 850 25.1 4.9 40.9 68 -0.5 31.1
21:20 1021 30.15 850 25.1 5.4 41.8 65 -0.7 30.8
21:25 1021 30.15 850 25.1 5.3 41.5 64 -0.9 30.5
21:30 1021 30.15 850 25.1 5.1 41.1 60 -2 28.5
21:35 1021 30.15 850 25.1 5.4 41.7 59 -1.9 28.5
21:40 1021 30.15 850 25.1 5.4 41.7 59 -2 28.4
21:45 1020 30.12 850 25.1 5.2 41.3 59 -2.1 28.2
21:50 1020 30.12 849 25.07 5.1 41.2 60 -1.9 28.5
21:55 1020 30.12 849 25.07 5.2 41.3 59 -2.3 27.9
22:00 1020 30.12 849 25.07 5.4 41.6 58 -2.3 27.8
22:05 1020 30.12 849 25.07 5.1 41.2 60 -2.1 28.2
22:10 1020 30.12 849 25.07 4.7 40.4 61 -2.3 27.9
22:15 1020 30.12 849 25.07 4.5 40 62 -2.3 27.9
22:20 1020 30.12 849 25.07 4.6 40.3 58 -2.9 26.8
22:25 1020 30.12 849 25.07 5.1 41.2 56 -2.9 26.7
22:30 1020 30.12 849 25.07 5.3 41.6 56 -2.7 27.1
22:35 1020 30.12 849 25.07 5.3 41.5 60 -1.9 28.6
22:40 1020 30.12 849 25.07 4.8 40.7 60 -2.3 27.9
22:45 1020 30.12 849 25.07 4.8 40.6 61 -2.1 28.2
22:50 1020 30.12 849 25.07 4.6 40.3 62 -2.2 28.1
22:55 1019 30.09 849 25.07 4.7 40.4 61 -2.3 27.9
23:00 1019 30.09 849 25.07 4.7 40.4 60 -2.4 27.6
23:05 1019 30.09 848 25.04 4.7 40.4 60 -2.4 27.7
23:10 1019 30.09 848 25.04 5 41 59 -2.4 27.7
23:15 1019 30.09 848 25.04 5 41.1 59 -2.4 27.7
23:20 1019 30.09 848 25.04 4.9 40.9 58 -2.6 27.4
23:25 1019 30.09 848 25.04 5.1 41.2 56 -2.9 26.7
23:30 1019 30.09 848 25.04 5.5 41.8 54 -3.2 26.3
23:35 1019 30.09 848 25.04 6 42.8 51 -3.3 26.1
23:40 1019 30.09 848 25.04 6.4 43.4 51 -3 26.7
23:45 1019 30.09 848 25.04 6.2 43.1 52 -3 26.7
23:50 1019 30.09 848 25.04 6 42.9 52 -3.1 26.5
23:55 1019 30.09 848 25.04 5.9 42.6 52 -3.2 26.2
24:00 1019 30.09 848 25.04 5.6 42.1 54 -2.9 26.8